sensor_id;sensor_type;location;lat;lon;timestamp;temperature;humidity
48264;DHT22;34086;51.076;13.722;2024-01-16T00:00:38;0.70;99.90
48264;DHT22;34086;51.076;13.722;2024-01-16T00:01:42;0.70;99.90
48264;DHT22;34086;51.076;13.722;2024-01-16T00:02:43;0.60;99.90
48264;DHT22;34086;51.076;13.722;2024-01-16T00:03:44;0.70;99.90
48264;DHT22;34086;51.076;13.722;2024-01-16T00:04:44;0.70;99.90
48264;DHT22;34086;51.076;13.722;2024-01-16T00:05:45;0.70;99.90
48264;DHT22;34086;51.076;13.722;2024-01-16T00:06:45;0.70;99.90
48264;DHT22;34086;51.076;13.722;2024-01-16T00:07:46;0.70;99.90
48264;DHT22;34086;51.076;13.722;2024-01-16T00:08:46;0.80;99.90
48264;DHT22;34086;51.076;13.722;2024-01-16T00:09:47;0.80;99.90
48264;DHT22;34086;51.076;13.722;2024-01-16T00:10:47;0.80;99.90
48264;DHT22;34086;51.076;13.722;2024-01-16T00:11:48;0.80;99.90
48264;DHT22;34086;51.076;13.722;2024-01-16T00:12:48;0.80;99.90
48264;DHT22;34086;51.076;13.722;2024-01-16T00:13:49;0.80;99.90
48264;DHT22;34086;51.076;13.722;2024-01-16T00:14:50;0.80;99.90
48264;DHT22;34086;51.076;13.722;2024-01-16T00:15:50;0.80;99.90
48264;DHT22;34086;51.076;13.722;2024-01-16T00:16:51;0.80;99.90
48264;DHT22;34086;51.076;13.722;2024-01-16T00:17:51;0.80;99.90
48264;DHT22;34086;51.076;13.722;2024-01-16T00:18:52;0.80;99.90
48264;DHT22;34086;51.076;13.722;2024-01-16T00:19:53;0.80;99.90
48264;DHT22;34086;51.076;13.722;2024-01-16T00:20:53;0.80;99.90
48264;DHT22;34086;51.076;13.722;2024-01-16T00:21:54;0.80;99.90
48264;DHT22;34086;51.076;13.722;2024-01-16T00:22:54;0.80;99.90
48264;DHT22;34086;51.076;13.722;2024-01-16T00:23:55;0.80;99.90
48264;DHT22;34086;51.076;13.722;2024-01-16T00:24:55;0.80;99.90
48264;DHT22;34086;51.076;13.722;2024-01-16T00:25:56;0.80;99.90
48264;DHT22;34086;51.076;13.722;2024-01-16T00:26:56;0.80;99.90
48264;DHT22;34086;51.076;13.722;2024-01-16T00:27:57;0.80;99.90
48264;DHT22;34086;51.076;13.722;2024-01-16T00:28:57;0.80;99.90
48264;DHT22;34086;51.076;13.722;2024-01-16T00:29:58;0.80;99.90
48264;DHT22;34086;51.076;13.722;2024-01-16T00:30:58;0.70;99.90
48264;DHT22;34086;51.076;13.722;2024-01-16T00:31:59;0.60;99.90
48264;DHT22;34086;51.076;13.722;2024-01-16T00:33:00;0.60;99.90
48264;DHT22;34086;51.076;13.722;2024-01-16T00:34:00;0.50;99.90
48264;DHT22;34086;51.076;13.722;2024-01-16T00:35:01;0.40;99.90
48264;DHT22;34086;51.076;13.722;2024-01-16T00:36:02;0.40;99.90
48264;DHT22;34086;51.076;13.722;2024-01-16T00:37:02;0.40;99.90
48264;DHT22;34086;51.076;13.722;2024-01-16T00:38:03;0.40;99.90
48264;DHT22;34086;51.076;13.722;2024-01-16T00:39:03;0.40;99.90
48264;DHT22;34086;51.076;13.722;2024-01-16T00:40:05;0.30;99.90
48264;DHT22;34086;51.076;13.722;2024-01-16T00:41:05;0.40;99.90
48264;DHT22;34086;51.076;13.722;2024-01-16T00:42:07;0.40;99.90
48264;DHT22;34086;51.076;13.722;2024-01-16T00:43:08;0.40;99.90
48264;DHT22;34086;51.076;13.722;2024-01-16T00:44:09;0.40;99.90
48264;DHT22;34086;51.076;13.722;2024-01-16T00:45:11;0.40;99.90
48264;DHT22;34086;51.076;13.722;2024-01-16T00:46:11;0.40;99.90
48264;DHT22;34086;51.076;13.722;2024-01-16T00:47:12;0.50;99.90
48264;DHT22;34086;51.076;13.722;2024-01-16T00:48:12;0.50;99.90
48264;DHT22;34086;51.076;13.722;2024-01-16T00:49:14;0.50;99.90
48264;DHT22;34086;51.076;13.722;2024-01-16T00:50:14;0.50;99.90
48264;DHT22;34086;51.076;13.722;2024-01-16T00:51:15;0.50;99.90
48264;DHT22;34086;51.076;13.722;2024-01-16T00:52:16;0.50;99.90
48264;DHT22;34086;51.076;13.722;2024-01-16T00:53:16;0.50;99.90
48264;DHT22;34086;51.076;13.722;2024-01-16T00:54:17;0.50;99.90
48264;DHT22;34086;51.076;13.722;2024-01-16T00:55:18;0.50;99.90
48264;DHT22;34086;51.076;13.722;2024-01-16T00:56:18;0.50;99.90
48264;DHT22;34086;51.076;13.722;2024-01-16T00:57:19;0.60;99.90
48264;DHT22;34086;51.076;13.722;2024-01-16T00:58:21;0.50;99.90
48264;DHT22;34086;51.076;13.722;2024-01-16T00:59:22;0.50;99.90
48264;DHT22;34086;51.076;13.722;2024-01-16T01:00:23;0.50;99.90
48264;DHT22;34086;51.076;13.722;2024-01-16T01:01:23;0.60;99.90
48264;DHT22;34086;51.076;13.722;2024-01-16T01:02:24;0.50;99.90
48264;DHT22;34086;51.076;13.722;2024-01-16T01:03:25;0.50;99.90
48264;DHT22;34086;51.076;13.722;2024-01-16T01:04:26;0.50;99.90
48264;DHT22;34086;51.076;13.722;2024-01-16T01:05:26;0.50;99.90
48264;DHT22;34086;51.076;13.722;2024-01-16T01:06:28;0.50;99.90
48264;DHT22;34086;51.076;13.722;2024-01-16T01:07:29;0.60;99.90
48264;DHT22;34086;51.076;13.722;2024-01-16T01:08:29;0.60;99.90
48264;DHT22;34086;51.076;13.722;2024-01-16T01:09:32;0.60;99.90
48264;DHT22;34086;51.076;13.722;2024-01-16T01:10:33;0.60;99.90
48264;DHT22;34086;51.076;13.722;2024-01-16T01:11:33;0.60;99.90
48264;DHT22;34086;51.076;13.722;2024-01-16T01:12:34;0.60;99.90
48264;DHT22;34086;51.076;13.722;2024-01-16T01:13:34;0.60;99.90
48264;DHT22;34086;51.076;13.722;2024-01-16T01:14:35;0.60;99.90
48264;DHT22;34086;51.076;13.722;2024-01-16T01:15:36;0.60;99.90
48264;DHT22;34086;51.076;13.722;2024-01-16T01:16:36;0.60;99.90
48264;DHT22;34086;51.076;13.722;2024-01-16T01:17:37;0.60;99.90
48264;DHT22;34086;51.076;13.722;2024-01-16T01:18:37;0.60;99.90
48264;DHT22;34086;51.076;13.722;2024-01-16T01:19:38;0.60;99.90
48264;DHT22;34086;51.076;13.722;2024-01-16T01:20:39;0.70;99.90
48264;DHT22;34086;51.076;13.722;2024-01-16T01:21:39;0.60;99.90
48264;DHT22;34086;51.076;13.722;2024-01-16T01:22:40;0.60;99.90
48264;DHT22;34086;51.076;13.722;2024-01-16T01:23:41;0.60;99.90
48264;DHT22;34086;51.076;13.722;2024-01-16T01:24:41;0.60;99.90
48264;DHT22;34086;51.076;13.722;2024-01-16T01:25:42;0.60;99.90
48264;DHT22;34086;51.076;13.722;2024-01-16T01:26:43;0.60;99.90
48264;DHT22;34086;51.076;13.722;2024-01-16T01:27:44;0.60;99.90
48264;DHT22;34086;51.076;13.722;2024-01-16T01:28:45;0.60;99.90
48264;DHT22;34086;51.076;13.722;2024-01-16T01:29:46;0.50;99.90
48264;DHT22;34086;51.076;13.722;2024-01-16T01:30:46;0.60;99.90
48264;DHT22;34086;51.076;13.722;2024-01-16T01:31:47;0.50;99.90
48264;DHT22;34086;51.076;13.722;2024-01-16T01:32:50;0.50;99.90
48264;DHT22;34086;51.076;13.722;2024-01-16T01:33:51;0.50;99.90
48264;DHT22;34086;51.076;13.722;2024-01-16T01:34:51;0.50;99.90
48264;DHT22;34086;51.076;13.722;2024-01-16T01:35:52;0.50;99.90
48264;DHT22;34086;51.076;13.722;2024-01-16T01:36:52;0.50;99.90
48264;DHT22;34086;51.076;13.722;2024-01-16T01:37:53;0.50;99.90
48264;DHT22;34086;51.076;13.722;2024-01-16T01:38:53;0.50;99.90
48264;DHT22;34086;51.076;13.722;2024-01-16T01:39:54;0.50;99.90
48264;DHT22;34086;51.076;13.722;2024-01-16T01:40:56;0.40;99.90
48264;DHT22;34086;51.076;13.722;2024-01-16T01:41:56;0.50;99.90
48264;DHT22;34086;51.076;13.722;2024-01-16T01:42:57;0.50;99.90
48264;DHT22;34086;51.076;13.722;2024-01-16T01:43:57;0.50;99.90
48264;DHT22;34086;51.076;13.722;2024-01-16T01:44:58;0.50;99.90
48264;DHT22;34086;51.076;13.722;2024-01-16T01:46:09;0.50;99.90
48264;DHT22;34086;51.076;13.722;2024-01-16T01:47:10;0.50;99.90
48264;DHT22;34086;51.076;13.722;2024-01-16T01:48:11;0.50;99.90
48264;DHT22;34086;51.076;13.722;2024-01-16T01:49:13;0.50;99.90
48264;DHT22;34086;51.076;13.722;2024-01-16T01:50:14;0.50;99.90
48264;DHT22;34086;51.076;13.722;2024-01-16T01:51:18;0.50;99.90
48264;DHT22;34086;51.076;13.722;2024-01-16T01:52:19;0.50;99.90
48264;DHT22;34086;51.076;13.722;2024-01-16T01:53:19;0.50;99.90
48264;DHT22;34086;51.076;13.722;2024-01-16T01:54:21;0.50;99.90
48264;DHT22;34086;51.076;13.722;2024-01-16T01:55:23;0.50;99.90
48264;DHT22;34086;51.076;13.722;2024-01-16T01:56:23;0.50;99.90
48264;DHT22;34086;51.076;13.722;2024-01-16T01:57:24;0.50;99.90
48264;DHT22;34086;51.076;13.722;2024-01-16T01:58:25;0.50;99.90
48264;DHT22;34086;51.076;13.722;2024-01-16T01:59:25;0.60;99.90
48264;DHT22;34086;51.076;13.722;2024-01-16T02:00:26;0.60;99.90
48264;DHT22;34086;51.076;13.722;2024-01-16T02:01:28;0.60;99.90
48264;DHT22;34086;51.076;13.722;2024-01-16T02:02:31;0.60;99.90
48264;DHT22;34086;51.076;13.722;2024-01-16T02:03:39;0.60;99.90
48264;DHT22;34086;51.076;13.722;2024-01-16T02:04:41;0.60;99.90
48264;DHT22;34086;51.076;13.722;2024-01-16T02:05:43;0.60;99.90
48264;DHT22;34086;51.076;13.722;2024-01-16T02:06:45;0.60;99.90
48264;DHT22;34086;51.076;13.722;2024-01-16T02:07:46;0.70;99.90
48264;DHT22;34086;51.076;13.722;2024-01-16T02:08:47;0.70;99.90
48264;DHT22;34086;51.076;13.722;2024-01-16T02:09:48;0.70;99.90
48264;DHT22;34086;51.076;13.722;2024-01-16T02:10:49;0.70;99.90
48264;DHT22;34086;51.076;13.722;2024-01-16T02:11:50;0.70;99.90
48264;DHT22;34086;51.076;13.722;2024-01-16T02:12:50;0.80;99.90
48264;DHT22;34086;51.076;13.722;2024-01-16T02:13:51;0.80;99.90
48264;DHT22;34086;51.076;13.722;2024-01-16T02:14:52;0.80;99.90
48264;DHT22;34086;51.076;13.722;2024-01-16T02:15:52;0.80;99.90
48264;DHT22;34086;51.076;13.722;2024-01-16T02:16:53;0.80;99.90
48264;DHT22;34086;51.076;13.722;2024-01-16T02:17:53;0.80;99.90
48264;DHT22;34086;51.076;13.722;2024-01-16T02:18:54;0.80;99.90
48264;DHT22;34086;51.076;13.722;2024-01-16T02:19:54;0.80;99.90
48264;DHT22;34086;51.076;13.722;2024-01-16T02:21:00;0.80;99.90
48264;DHT22;34086;51.076;13.722;2024-01-16T02:22:05;0.80;99.90
48264;DHT22;34086;51.076;13.722;2024-01-16T02:23:10;0.80;99.90
48264;DHT22;34086;51.076;13.722;2024-01-16T02:24:13;0.80;99.90
48264;DHT22;34086;51.076;13.722;2024-01-16T02:25:14;0.80;99.90
48264;DHT22;34086;51.076;13.722;2024-01-16T02:26:14;0.80;99.90
48264;DHT22;34086;51.076;13.722;2024-01-16T02:27:16;0.70;99.90
48264;DHT22;34086;51.076;13.722;2024-01-16T02:28:17;0.70;99.90
48264;DHT22;34086;51.076;13.722;2024-01-16T02:29:17;0.70;99.90
48264;DHT22;34086;51.076;13.722;2024-01-16T02:30:18;0.70;99.90
48264;DHT22;34086;51.076;13.722;2024-01-16T02:31:19;0.70;99.90
48264;DHT22;34086;51.076;13.722;2024-01-16T02:32:19;0.70;99.90
48264;DHT22;34086;51.076;13.722;2024-01-16T02:33:20;0.70;99.90
48264;DHT22;34086;51.076;13.722;2024-01-16T02:34:20;0.70;99.90
48264;DHT22;34086;51.076;13.722;2024-01-16T02:35:21;0.70;99.90
48264;DHT22;34086;51.076;13.722;2024-01-16T02:36:21;0.70;99.90
48264;DHT22;34086;51.076;13.722;2024-01-16T02:37:22;0.70;99.90
48264;DHT22;34086;51.076;13.722;2024-01-16T02:38:23;0.70;99.90
48264;DHT22;34086;51.076;13.722;2024-01-16T02:39:24;0.70;99.90
48264;DHT22;34086;51.076;13.722;2024-01-16T02:40:25;0.70;99.90
48264;DHT22;34086;51.076;13.722;2024-01-16T02:41:26;0.70;99.90
48264;DHT22;34086;51.076;13.722;2024-01-16T02:42:26;0.70;99.90
48264;DHT22;34086;51.076;13.722;2024-01-16T02:43:27;0.70;99.90
48264;DHT22;34086;51.076;13.722;2024-01-16T02:44:27;0.70;99.90
48264;DHT22;34086;51.076;13.722;2024-01-16T02:45:28;0.70;99.90
48264;DHT22;34086;51.076;13.722;2024-01-16T02:46:29;0.70;99.90
48264;DHT22;34086;51.076;13.722;2024-01-16T02:47:29;0.70;99.90
48264;DHT22;34086;51.076;13.722;2024-01-16T02:48:30;0.70;99.90
48264;DHT22;34086;51.076;13.722;2024-01-16T02:49:31;0.70;99.90
48264;DHT22;34086;51.076;13.722;2024-01-16T02:50:33;0.70;99.90
48264;DHT22;34086;51.076;13.722;2024-01-16T02:51:33;0.60;99.90
48264;DHT22;34086;51.076;13.722;2024-01-16T02:52:34;0.60;99.90
48264;DHT22;34086;51.076;13.722;2024-01-16T02:53:34;0.60;99.90
48264;DHT22;34086;51.076;13.722;2024-01-16T02:54:35;0.60;99.90
48264;DHT22;34086;51.076;13.722;2024-01-16T02:55:35;0.60;99.90
48264;DHT22;34086;51.076;13.722;2024-01-16T02:56:36;0.60;99.90
48264;DHT22;34086;51.076;13.722;2024-01-16T02:57:36;0.60;99.90
48264;DHT22;34086;51.076;13.722;2024-01-16T02:58:37;0.70;99.90
48264;DHT22;34086;51.076;13.722;2024-01-16T02:59:38;0.70;99.90
48264;DHT22;34086;51.076;13.722;2024-01-16T03:00:38;0.70;99.90
48264;DHT22;34086;51.076;13.722;2024-01-16T03:01:39;0.70;99.90
48264;DHT22;34086;51.076;13.722;2024-01-16T03:02:39;0.70;99.90
48264;DHT22;34086;51.076;13.722;2024-01-16T03:03:40;0.70;99.90
48264;DHT22;34086;51.076;13.722;2024-01-16T03:04:41;0.80;99.90
48264;DHT22;34086;51.076;13.722;2024-01-16T03:05:41;0.80;99.90
48264;DHT22;34086;51.076;13.722;2024-01-16T03:06:42;0.80;99.90
48264;DHT22;34086;51.076;13.722;2024-01-16T03:07:42;0.80;99.90
48264;DHT22;34086;51.076;13.722;2024-01-16T03:08:43;0.80;99.90
48264;DHT22;34086;51.076;13.722;2024-01-16T03:09:43;0.80;99.90
48264;DHT22;34086;51.076;13.722;2024-01-16T03:10:44;0.80;99.90
48264;DHT22;34086;51.076;13.722;2024-01-16T03:11:45;0.80;99.90
48264;DHT22;34086;51.076;13.722;2024-01-16T03:12:45;0.80;99.90
48264;DHT22;34086;51.076;13.722;2024-01-16T03:13:46;0.80;99.90
48264;DHT22;34086;51.076;13.722;2024-01-16T03:14:47;0.80;99.90
48264;DHT22;34086;51.076;13.722;2024-01-16T03:15:47;0.80;99.90
48264;DHT22;34086;51.076;13.722;2024-01-16T03:16:48;0.90;99.90
48264;DHT22;34086;51.076;13.722;2024-01-16T03:17:48;0.90;99.90
48264;DHT22;34086;51.076;13.722;2024-01-16T03:18:49;0.90;99.90
48264;DHT22;34086;51.076;13.722;2024-01-16T03:19:50;0.90;99.90
48264;DHT22;34086;51.076;13.722;2024-01-16T03:20:50;1.00;99.90
48264;DHT22;34086;51.076;13.722;2024-01-16T03:21:51;0.90;99.90
48264;DHT22;34086;51.076;13.722;2024-01-16T03:22:51;0.90;99.90
48264;DHT22;34086;51.076;13.722;2024-01-16T03:23:52;0.90;99.90
48264;DHT22;34086;51.076;13.722;2024-01-16T03:24:52;1.00;99.90
48264;DHT22;34086;51.076;13.722;2024-01-16T03:25:53;1.00;99.90
48264;DHT22;34086;51.076;13.722;2024-01-16T03:26:53;1.00;99.90
48264;DHT22;34086;51.076;13.722;2024-01-16T03:27:54;1.00;99.90
48264;DHT22;34086;51.076;13.722;2024-01-16T03:28:54;1.00;99.90
48264;DHT22;34086;51.076;13.722;2024-01-16T03:29:55;1.00;99.90
48264;DHT22;34086;51.076;13.722;2024-01-16T03:30:56;1.00;99.90
48264;DHT22;34086;51.076;13.722;2024-01-16T03:31:57;1.00;99.90
48264;DHT22;34086;51.076;13.722;2024-01-16T03:32:58;1.00;99.90
48264;DHT22;34086;51.076;13.722;2024-01-16T03:33:58;1.00;99.90
48264;DHT22;34086;51.076;13.722;2024-01-16T03:34:59;1.10;99.90
48264;DHT22;34086;51.076;13.722;2024-01-16T03:35:59;1.00;99.90
48264;DHT22;34086;51.076;13.722;2024-01-16T03:37:00;1.00;99.90
48264;DHT22;34086;51.076;13.722;2024-01-16T03:38:00;1.00;99.90
48264;DHT22;34086;51.076;13.722;2024-01-16T03:39:01;1.00;99.90
48264;DHT22;34086;51.076;13.722;2024-01-16T03:40:02;1.00;99.90
48264;DHT22;34086;51.076;13.722;2024-01-16T03:41:03;1.00;99.90
48264;DHT22;34086;51.076;13.722;2024-01-16T03:42:04;1.00;99.90
48264;DHT22;34086;51.076;13.722;2024-01-16T03:43:04;1.00;99.90
48264;DHT22;34086;51.076;13.722;2024-01-16T03:44:08;1.00;99.90
48264;DHT22;34086;51.076;13.722;2024-01-16T03:45:09;1.00;99.90
48264;DHT22;34086;51.076;13.722;2024-01-16T03:46:13;1.00;99.90
48264;DHT22;34086;51.076;13.722;2024-01-16T03:47:13;1.00;99.90
48264;DHT22;34086;51.076;13.722;2024-01-16T03:48:14;0.90;99.90
48264;DHT22;34086;51.076;13.722;2024-01-16T03:49:14;0.90;99.90
48264;DHT22;34086;51.076;13.722;2024-01-16T03:50:15;0.90;99.90
48264;DHT22;34086;51.076;13.722;2024-01-16T03:51:16;0.90;99.90
48264;DHT22;34086;51.076;13.722;2024-01-16T03:52:18;0.90;99.90
48264;DHT22;34086;51.076;13.722;2024-01-16T03:53:18;0.90;99.90
48264;DHT22;34086;51.076;13.722;2024-01-16T03:54:19;0.90;99.90
48264;DHT22;34086;51.076;13.722;2024-01-16T03:55:20;0.90;99.90
48264;DHT22;34086;51.076;13.722;2024-01-16T03:56:22;0.90;99.90
48264;DHT22;34086;51.076;13.722;2024-01-16T03:57:22;0.90;99.90
48264;DHT22;34086;51.076;13.722;2024-01-16T03:58:25;0.90;99.90
48264;DHT22;34086;51.076;13.722;2024-01-16T03:59:25;0.80;99.90
48264;DHT22;34086;51.076;13.722;2024-01-16T04:00:26;0.80;99.90
48264;DHT22;34086;51.076;13.722;2024-01-16T04:01:32;0.80;99.90
48264;DHT22;34086;51.076;13.722;2024-01-16T04:02:33;0.80;99.90
48264;DHT22;34086;51.076;13.722;2024-01-16T04:03:33;0.80;99.90
48264;DHT22;34086;51.076;13.722;2024-01-16T04:04:35;0.70;99.90
48264;DHT22;34086;51.076;13.722;2024-01-16T04:05:36;0.70;99.90
48264;DHT22;34086;51.076;13.722;2024-01-16T04:06:36;0.70;99.90
48264;DHT22;34086;51.076;13.722;2024-01-16T04:07:37;0.70;99.90
48264;DHT22;34086;51.076;13.722;2024-01-16T04:08:38;0.70;99.90
48264;DHT22;34086;51.076;13.722;2024-01-16T04:09:38;0.70;99.90
48264;DHT22;34086;51.076;13.722;2024-01-16T04:10:39;0.70;99.90
48264;DHT22;34086;51.076;13.722;2024-01-16T04:11:39;0.70;99.90
48264;DHT22;34086;51.076;13.722;2024-01-16T04:12:40;0.70;99.90
48264;DHT22;34086;51.076;13.722;2024-01-16T04:13:41;0.80;99.90
48264;DHT22;34086;51.076;13.722;2024-01-16T04:14:41;0.70;99.90
48264;DHT22;34086;51.076;13.722;2024-01-16T04:15:42;0.70;99.90
48264;DHT22;34086;51.076;13.722;2024-01-16T04:16:42;0.70;99.90
48264;DHT22;34086;51.076;13.722;2024-01-16T04:17:43;0.70;99.90
48264;DHT22;34086;51.076;13.722;2024-01-16T04:18:43;0.70;99.90
48264;DHT22;34086;51.076;13.722;2024-01-16T04:19:44;0.80;99.90
48264;DHT22;34086;51.076;13.722;2024-01-16T04:20:44;0.80;99.90
48264;DHT22;34086;51.076;13.722;2024-01-16T04:21:45;0.70;99.90
48264;DHT22;34086;51.076;13.722;2024-01-16T04:22:46;0.70;99.90
48264;DHT22;34086;51.076;13.722;2024-01-16T04:23:47;0.70;99.90
48264;DHT22;34086;51.076;13.722;2024-01-16T04:24:47;0.60;99.90
48264;DHT22;34086;51.076;13.722;2024-01-16T04:25:48;0.60;99.90
48264;DHT22;34086;51.076;13.722;2024-01-16T04:26:49;0.60;99.90
48264;DHT22;34086;51.076;13.722;2024-01-16T04:27:50;0.60;99.90
48264;DHT22;34086;51.076;13.722;2024-01-16T04:28:51;0.60;99.90
48264;DHT22;34086;51.076;13.722;2024-01-16T04:29:51;0.60;99.90
48264;DHT22;34086;51.076;13.722;2024-01-16T04:30:52;0.60;99.90
48264;DHT22;34086;51.076;13.722;2024-01-16T04:31:52;0.60;99.90
48264;DHT22;34086;51.076;13.722;2024-01-16T04:32:53;0.60;99.90
48264;DHT22;34086;51.076;13.722;2024-01-16T04:33:54;0.60;99.90
48264;DHT22;34086;51.076;13.722;2024-01-16T04:34:54;0.60;99.90
48264;DHT22;34086;51.076;13.722;2024-01-16T04:35:55;0.60;99.90
48264;DHT22;34086;51.076;13.722;2024-01-16T04:36:56;0.70;99.90
48264;DHT22;34086;51.076;13.722;2024-01-16T04:37:56;0.70;99.90
48264;DHT22;34086;51.076;13.722;2024-01-16T04:38:57;0.70;99.90
48264;DHT22;34086;51.076;13.722;2024-01-16T04:39:57;0.80;99.90
48264;DHT22;34086;51.076;13.722;2024-01-16T04:41:03;0.80;99.90
48264;DHT22;34086;51.076;13.722;2024-01-16T04:42:04;0.70;99.90
48264;DHT22;34086;51.076;13.722;2024-01-16T04:43:04;0.80;99.90
48264;DHT22;34086;51.076;13.722;2024-01-16T04:44:05;0.80;99.90
48264;DHT22;34086;51.076;13.722;2024-01-16T04:45:06;0.80;99.90
48264;DHT22;34086;51.076;13.722;2024-01-16T04:46:07;0.90;99.90
48264;DHT22;34086;51.076;13.722;2024-01-16T04:47:08;0.90;99.90
48264;DHT22;34086;51.076;13.722;2024-01-16T04:48:08;0.90;99.90
48264;DHT22;34086;51.076;13.722;2024-01-16T04:49:09;1.00;99.90
48264;DHT22;34086;51.076;13.722;2024-01-16T04:50:09;1.00;99.90
48264;DHT22;34086;51.076;13.722;2024-01-16T04:51:10;1.00;99.90
48264;DHT22;34086;51.076;13.722;2024-01-16T04:52:10;1.00;99.90
48264;DHT22;34086;51.076;13.722;2024-01-16T04:53:11;1.00;99.90
48264;DHT22;34086;51.076;13.722;2024-01-16T04:54:12;1.10;99.90
48264;DHT22;34086;51.076;13.722;2024-01-16T04:55:12;1.10;99.90
48264;DHT22;34086;51.076;13.722;2024-01-16T04:56:13;1.00;99.90
48264;DHT22;34086;51.076;13.722;2024-01-16T04:57:13;1.10;99.90
48264;DHT22;34086;51.076;13.722;2024-01-16T04:58:14;1.00;99.90
48264;DHT22;34086;51.076;13.722;2024-01-16T04:59:14;1.00;99.90
48264;DHT22;34086;51.076;13.722;2024-01-16T05:00:15;1.10;99.90
48264;DHT22;34086;51.076;13.722;2024-01-16T05:01:16;1.10;99.90
48264;DHT22;34086;51.076;13.722;2024-01-16T05:02:16;1.10;99.90
48264;DHT22;34086;51.076;13.722;2024-01-16T05:03:17;1.10;99.90
48264;DHT22;34086;51.076;13.722;2024-01-16T05:04:18;1.10;99.90
48264;DHT22;34086;51.076;13.722;2024-01-16T05:05:18;1.10;99.90
48264;DHT22;34086;51.076;13.722;2024-01-16T05:06:19;1.10;99.90
48264;DHT22;34086;51.076;13.722;2024-01-16T05:07:19;1.20;99.90
48264;DHT22;34086;51.076;13.722;2024-01-16T05:08:21;1.20;99.90
48264;DHT22;34086;51.076;13.722;2024-01-16T05:09:22;1.20;99.90
48264;DHT22;34086;51.076;13.722;2024-01-16T05:10:22;1.20;99.90
48264;DHT22;34086;51.076;13.722;2024-01-16T05:11:23;1.10;99.90
48264;DHT22;34086;51.076;13.722;2024-01-16T05:12:23;1.10;99.90
48264;DHT22;34086;51.076;13.722;2024-01-16T05:13:24;1.10;99.90
48264;DHT22;34086;51.076;13.722;2024-01-16T05:14:24;1.10;99.90
48264;DHT22;34086;51.076;13.722;2024-01-16T05:15:25;1.10;99.90
48264;DHT22;34086;51.076;13.722;2024-01-16T05:16:27;1.20;99.90
48264;DHT22;34086;51.076;13.722;2024-01-16T05:17:27;1.20;99.90
48264;DHT22;34086;51.076;13.722;2024-01-16T05:18:28;1.10;99.90
48264;DHT22;34086;51.076;13.722;2024-01-16T05:19:28;1.20;99.90
48264;DHT22;34086;51.076;13.722;2024-01-16T05:20:29;1.20;99.90
48264;DHT22;34086;51.076;13.722;2024-01-16T05:21:30;1.20;99.90
48264;DHT22;34086;51.076;13.722;2024-01-16T05:22:31;1.20;99.90
48264;DHT22;34086;51.076;13.722;2024-01-16T05:23:31;1.30;99.90
48264;DHT22;34086;51.076;13.722;2024-01-16T05:24:32;1.30;99.90
48264;DHT22;34086;51.076;13.722;2024-01-16T05:25:32;1.20;99.90
48264;DHT22;34086;51.076;13.722;2024-01-16T05:26:33;1.30;99.90
48264;DHT22;34086;51.076;13.722;2024-01-16T05:27:34;1.20;99.90
48264;DHT22;34086;51.076;13.722;2024-01-16T05:28:34;1.30;99.90
48264;DHT22;34086;51.076;13.722;2024-01-16T05:29:35;1.30;99.90
48264;DHT22;34086;51.076;13.722;2024-01-16T05:30:39;1.30;99.90
48264;DHT22;34086;51.076;13.722;2024-01-16T05:31:43;1.20;99.90
48264;DHT22;34086;51.076;13.722;2024-01-16T05:32:44;1.20;99.90
48264;DHT22;34086;51.076;13.722;2024-01-16T05:33:45;1.20;99.90
48264;DHT22;34086;51.076;13.722;2024-01-16T05:34:45;1.30;99.90
48264;DHT22;34086;51.076;13.722;2024-01-16T05:35:46;1.30;99.90
48264;DHT22;34086;51.076;13.722;2024-01-16T05:36:46;1.30;99.90
48264;DHT22;34086;51.076;13.722;2024-01-16T05:37:47;1.20;99.90
48264;DHT22;34086;51.076;13.722;2024-01-16T05:38:48;1.20;99.90
48264;DHT22;34086;51.076;13.722;2024-01-16T05:39:50;1.20;99.90
48264;DHT22;34086;51.076;13.722;2024-01-16T05:40:51;1.20;99.90
48264;DHT22;34086;51.076;13.722;2024-01-16T05:41:52;1.20;99.90
48264;DHT22;34086;51.076;13.722;2024-01-16T05:42:52;1.20;99.90
48264;DHT22;34086;51.076;13.722;2024-01-16T05:43:53;1.20;99.90
48264;DHT22;34086;51.076;13.722;2024-01-16T05:44:54;1.20;99.90
48264;DHT22;34086;51.076;13.722;2024-01-16T05:45:55;1.20;99.90
48264;DHT22;34086;51.076;13.722;2024-01-16T05:46:55;1.20;99.90
48264;DHT22;34086;51.076;13.722;2024-01-16T05:47:56;1.20;99.90
48264;DHT22;34086;51.076;13.722;2024-01-16T05:48:56;1.20;99.90
48264;DHT22;34086;51.076;13.722;2024-01-16T05:49:57;1.30;99.90
48264;DHT22;34086;51.076;13.722;2024-01-16T05:50:58;1.30;99.90
48264;DHT22;34086;51.076;13.722;2024-01-16T05:51:58;1.20;99.90
48264;DHT22;34086;51.076;13.722;2024-01-16T05:52:59;1.20;99.90
48264;DHT22;34086;51.076;13.722;2024-01-16T05:53:59;1.20;99.90
48264;DHT22;34086;51.076;13.722;2024-01-16T05:55:01;1.20;99.90
48264;DHT22;34086;51.076;13.722;2024-01-16T05:56:02;1.20;99.90
48264;DHT22;34086;51.076;13.722;2024-01-16T05:57:03;1.30;99.90
48264;DHT22;34086;51.076;13.722;2024-01-16T05:58:05;1.20;99.90
48264;DHT22;34086;51.076;13.722;2024-01-16T05:59:05;1.20;99.90
48264;DHT22;34086;51.076;13.722;2024-01-16T06:00:07;1.30;99.90
48264;DHT22;34086;51.076;13.722;2024-01-16T06:01:08;1.30;99.90
48264;DHT22;34086;51.076;13.722;2024-01-16T06:02:08;1.20;99.90
48264;DHT22;34086;51.076;13.722;2024-01-16T06:03:11;1.20;99.90
48264;DHT22;34086;51.076;13.722;2024-01-16T06:04:11;1.20;99.90
48264;DHT22;34086;51.076;13.722;2024-01-16T06:05:12;1.20;99.90
48264;DHT22;34086;51.076;13.722;2024-01-16T06:06:12;1.20;99.90
48264;DHT22;34086;51.076;13.722;2024-01-16T06:07:13;1.20;99.90
48264;DHT22;34086;51.076;13.722;2024-01-16T06:08:13;1.20;99.90
48264;DHT22;34086;51.076;13.722;2024-01-16T06:09:14;1.20;99.90
48264;DHT22;34086;51.076;13.722;2024-01-16T06:10:15;1.20;99.90
48264;DHT22;34086;51.076;13.722;2024-01-16T06:11:15;1.20;99.90
48264;DHT22;34086;51.076;13.722;2024-01-16T06:12:16;1.20;99.90
48264;DHT22;34086;51.076;13.722;2024-01-16T06:13:19;1.10;99.90
48264;DHT22;34086;51.076;13.722;2024-01-16T06:14:19;1.10;99.90
48264;DHT22;34086;51.076;13.722;2024-01-16T06:15:21;1.10;99.90
48264;DHT22;34086;51.076;13.722;2024-01-16T06:16:23;1.00;99.90
48264;DHT22;34086;51.076;13.722;2024-01-16T06:17:25;1.00;99.90
48264;DHT22;34086;51.076;13.722;2024-01-16T06:18:25;0.90;99.90
48264;DHT22;34086;51.076;13.722;2024-01-16T06:19:26;0.90;99.90
48264;DHT22;34086;51.076;13.722;2024-01-16T06:20:26;0.90;99.90
48264;DHT22;34086;51.076;13.722;2024-01-16T06:21:29;0.90;99.90
48264;DHT22;34086;51.076;13.722;2024-01-16T06:22:29;0.80;99.90
48264;DHT22;34086;51.076;13.722;2024-01-16T06:23:30;0.80;99.90
48264;DHT22;34086;51.076;13.722;2024-01-16T06:24:31;0.90;99.90